Lake Park, Minnesota
Current Conditions -  °F | °C
As of 4:35 AM on Wednesday 22 Oct 2014 (Local Time) from KDTL Reporting Station
Scattered Clouds Scattered Clouds  
Wind Chill: 50°   Ceiling: Unl
Heat Index: 50°   Visibility: 10mi
Dew Point: 41°   Wind: 18mph
Humidity: 71%   Direction: 150°SSE
Pressure: 29.97"   Gusts: 25mph
Location:  46.89°N, 96.09°W
Report Text: KDTL 220935Z AUTO 15016G22KT 10SM SCT060 10/05 A2997 RMK AO2
Loading
Personal Weather Stations






























Interactive Weather Map
Tropical Storm Tracking
New forecast layout! Learn more

10-Day Weather Forecast

Advertisements
Track Severe Weather on mobile